.
WxDataArchive / Data Records for 2007-09-10
2007-09-09 September 2007 2007-09-11

Data Records for Monday, 10 September 2007

Time	Temp	Chill	HIndex	Humid	Dewpt	 Wind 	HiWind	WindDir	Rain 	Barom 
-----	----	-----	------	-----	-----	------	------	-------	-----	----- 
00:00	63.4	63.4	63.4	92	61.0	0	0	---	0.00	30.005 
00:05	63.4	63.4	63.4	92	61.0	0	0	---	0.00	30.004 
00:10	63.2	63.2	63.2	92	60.8	0	0	---	0.00	30.005 
00:15	63.2	63.2	63.2	92	60.8	0	0	---	0.00	30.011 
00:20	63.2	63.2	63.2	92	60.8	0	0	---	0.00	30.012 
00:25	63.2	63.2	63.2	92	60.8	0	0	---	0.00	30.012 
00:30	63.2	63.2	63.2	92	60.8	0	0	---	0.00	30.012 
00:35	63.2	63.2	63.2	92	60.8	0	0	---	0.00	30.012 
00:40	63.1	63.1	63.1	92	60.7	0	0	---	0.00	30.012 
00:45	63.1	63.1	63.1	92	60.7	0	0	---	0.00	30.012 
00:50	62.9	62.9	62.9	92	60.5	0	0	---	0.00	30.013 
00:55	62.7	62.7	62.7	92	60.3	0	0	---	0.00	30.013 
01:00	62.7	62.7	62.7	92	60.3	0	0	---	0.00	30.014 
01:05	62.6	62.6	62.6	92	60.2	0	0	---	0.00	30.012 
01:10	62.6	62.6	62.6	92	60.2	0	0	---	0.00	30.012 
01:15	62.6	62.6	62.6	92	60.2	0	0	---	0.00	30.012 
01:20	62.4	62.4	62.4	92	60.0	0	0	---	0.00	30.013 
01:25	62.4	62.4	62.4	93	60.3	0	0	---	0.00	30.013 
01:30	62.4	62.4	62.4	93	60.3	0	0	---	0.00	30.014 
01:35	62.3	62.3	62.3	93	60.2	0	0	---	0.00	30.014 
01:40	62.3	62.3	62.3	93	60.2	0	0	---	0.00	30.013 
01:45	62.1	62.1	62.1	93	60.0	0	0	---	0.00	30.013 
01:50	62.1	62.1	62.1	93	60.0	0	0	---	0.00	30.012 
01:55	62.0	62.0	62.0	93	59.9	0	0	---	0.00	30.012 
02:00	61.8	61.8	61.8	93	59.8	0	0	---	0.00	30.012 
02:05	61.6	61.6	61.6	94	59.9	0	0	---	0.00	30.009 
02:10	61.5	61.5	61.5	94	59.8	0	0	---	0.00	30.010 
02:15	61.5	61.5	61.5	94	59.8	0	0	---	0.00	30.009 
02:20	61.3	61.3	61.3	94	59.6	0	0	---	0.00	30.010 
02:25	61.3	61.3	61.3	94	59.6	0	0	---	0.00	30.010 
02:30	61.3	61.3	61.3	95	59.9	0	0	---	0.00	30.010 
02:35	61.2	61.2	61.2	95	59.8	0	0	---	0.00	30.009 
02:40	61.2	61.2	61.2	95	59.8	0	0	---	0.00	30.008 
02:45	61.0	61.0	61.0	95	59.6	0	0	---	0.00	30.010 
02:50	60.9	60.9	60.9	95	59.5	0	0	---	0.00	30.011 
02:55	60.7	60.7	60.7	95	59.3	0	0	---	0.00	30.011 
03:00	60.7	60.7	60.7	95	59.3	0	0	---	0.00	30.012 
03:05	60.5	60.5	60.5	95	59.1	0	0	---	0.00	30.010 
03:10	60.5	60.5	60.5	95	59.1	0	0	---	0.00	30.011 
03:15	60.4	60.4	60.4	95	59.0	0	0	---	0.00	30.013 
03:20	60.4	60.4	60.4	96	59.3	0	0	---	0.00	30.012 
03:25	60.2	60.2	60.2	96	59.1	0	0	---	0.00	30.011 
03:30	60.1	60.1	60.1	96	59.0	0	0	---	0.00	30.011 
03:35	60.1	60.1	60.1	96	59.0	0	0	---	0.00	30.012 
03:40	59.9	59.9	59.9	96	58.8	0	0	---	0.00	30.012 
03:45	59.8	59.8	59.8	96	58.7	0	0	---	0.00	30.013 
03:50	59.8	59.8	59.8	96	58.7	0	0	---	0.00	30.012 
03:55	59.6	59.6	59.6	96	58.5	0	0	---	0.00	30.013 
04:00	59.6	59.6	59.6	96	58.5	0	0	---	0.00	30.012 
04:05	59.8	59.8	59.8	96	58.7	0	0	---	0.00	30.012 
04:10	59.8	59.8	59.8	96	58.7	0	0	---	0.00	30.012 
04:15	59.8	59.8	59.8	96	58.7	0	0	---	0.00	30.011 
04:20	59.9	59.9	59.9	96	58.8	0	0	---	0.00	30.010 
04:25	59.9	59.9	59.9	96	58.8	0	0	---	0.00	30.010 
04:30	60.1	60.1	60.1	96	59.0	0	0	---	0.00	30.009 
04:35	60.1	60.1	60.1	97	59.2	0	0	---	0.00	30.011 
04:40	60.4	60.4	60.4	97	59.5	0	0	---	0.00	30.013 
04:45	60.5	60.5	60.5	97	59.6	0	1	292	0.00	30.011 
04:50	60.7	60.7	60.7	97	59.8	0	1	292	0.00	30.012 
04:55	61.2	61.2	61.2	97	60.3	0	1	292	0.00	30.009 
05:00	61.3	61.3	61.3	97	60.4	0	0	---	0.00	30.011 
05:05	61.5	61.5	61.5	97	60.6	0	0	---	0.00	30.015 
05:10	61.6	61.6	61.6	97	60.7	0	0	---	0.00	30.017 
05:15	61.8	61.8	61.8	97	60.9	0	0	---	0.00	30.018 
05:20	62.0	62.0	62.0	97	61.1	0	0	---	0.00	30.021 
05:25	62.0	62.0	62.0	97	61.1	0	0	---	0.00	30.023 
05:30	62.1	62.1	62.1	97	61.2	0	0	---	0.00	30.023 
05:35	62.1	62.1	62.1	97	61.2	0	0	---	0.00	30.025 
05:40	62.4	62.4	62.4	97	61.5	0	1	292	0.00	30.026 
05:45	62.7	62.7	62.7	97	61.8	0	1	292	0.00	30.028 
05:50	63.1	63.1	63.1	97	62.2	0	1	292	0.00	30.027 
05:55	63.4	63.4	63.4	97	62.5	0	1	292	0.00	30.028 
06:00	63.5	63.5	63.5	97	62.6	0	2	292	0.00	30.029 
06:05	63.5	63.5	63.5	97	62.6	0	2	315	0.00	30.031 
06:10	63.7	63.7	63.7	97	62.8	0	1	315	0.00	30.031 
06:15	63.7	63.7	63.7	97	62.8	0	2	315	0.00	30.032 
06:20	63.7	63.7	63.7	97	62.8	1	3	315	0.00	30.036 
06:25	63.5	63.5	63.5	97	62.6	0	3	315	0.00	30.037 
06:30	63.5	63.5	63.5	97	62.6	0	1	315	0.00	30.040 
06:35	63.5	63.5	63.5	97	62.6	0	1	315	0.00	30.041 
06:40	63.5	63.5	63.5	97	62.6	0	1	315	0.00	30.042 
06:45	63.5	63.5	63.5	97	62.6	0	2	0	0.00	30.045 
06:50	63.5	63.5	63.5	97	62.6	0	3	22	0.00	30.048 
06:55	63.5	63.5	63.5	97	62.6	1	4	90	0.00	30.054 
07:00	63.5	63.5	63.5	97	62.6	1	2	90	0.00	30.053 
07:05	63.7	63.7	63.7	97	62.8	1	2	90	0.00	30.054 
07:10	63.7	63.7	63.7	97	62.8	1	3	90	0.00	30.049 
07:15	63.9	63.9	63.9	97	63.0	1	3	90	0.00	30.045 
07:20	64.0	64.0	64.0	97	63.1	1	3	90	0.00	30.045 
07:25	64.0	64.0	64.0	97	63.1	0	2	90	0.00	30.046 
07:30	64.0	64.0	64.0	97	63.1	1	3	90	0.00	30.047 
07:35	64.0	64.0	64.0	97	63.1	1	3	90	0.00	30.050 
07:40	64.0	64.0	64.0	97	63.1	1	2	90	0.00	30.048 
07:45	64.0	64.0	64.0	97	63.1	1	3	90	0.00	30.046 
07:50	64.2	64.2	64.2	97	63.3	1	4	90	0.00	30.044 
07:55	64.2	64.2	64.2	97	63.3	1	4	90	0.00	30.045 
08:00	64.2	64.2	64.2	97	63.3	1	5	90	0.00	30.045 
08:05	64.3	64.3	64.3	97	63.4	1	2	90	0.00	30.048 
08:10	64.7	64.7	64.7	97	63.8	1	4	90	0.00	30.049 
08:15	64.3	64.3	64.3	97	63.4	2	4	90	0.00	30.051 
08:20	64.3	64.3	64.3	97	63.4	2	4	90	0.00	30.057 
08:25	64.3	64.3	64.3	97	63.4	2	3	90	0.00	30.053 
08:30	64.5	64.5	64.5	97	63.6	1	5	90	0.00	30.051 
08:35	64.8	64.8	64.8	97	63.9	1	3	90	0.00	30.055 
08:40	64.7	64.7	64.7	97	63.8	2	5	90	0.00	30.055 
08:45	64.8	64.8	64.8	96	63.6	1	3	90	0.00	30.058 
08:50	65.0	65.0	65.0	96	63.8	1	3	90	0.00	30.058 
08:55	65.2	65.2	65.2	95	63.7	1	5	68	0.00	30.055 
09:00	65.3	65.3	65.3	95	63.8	0	1	68	0.00	30.058 
09:05	65.6	65.6	65.6	94	63.8	1	3	68	0.00	30.059 
09:10	65.8	65.8	65.8	92	63.4	1	3	90	0.00	30.058 
09:15	66.0	66.0	66.0	91	63.3	1	3	90	0.00	30.059 
09:20	66.3	66.3	66.3	91	63.6	0	2	112	0.00	30.061 
09:25	66.4	66.4	66.4	90	63.4	1	4	112	0.00	30.061 
09:30	66.8	66.8	66.8	90	63.8	1	3	112	0.00	30.060 
09:35	66.9	66.9	66.9	89	63.5	1	3	112	0.00	30.061 
09:40	67.3	67.3	67.3	87	63.3	2	4	90	0.00	30.059 
09:45	67.3	67.3	67.3	86	63.0	1	3	90	0.00	30.058 
09:50	67.4	67.4	67.4	86	63.1	2	4	68	0.00	30.056 
09:55	67.8	67.8	67.8	85	63.1	2	5	90	0.00	30.050 
10:00	68.4	68.4	68.4	85	63.7	1	3	90	0.00	30.047 
10:05	68.9	68.9	68.9	83	63.5	1	3	112	0.00	30.049 
10:10	68.8	68.8	68.8	83	63.4	1	4	90	0.00	30.048 
10:15	68.6	68.6	68.6	83	63.2	1	3	90	0.00	30.045 
10:20	68.6	68.6	68.6	84	63.6	1	3	90	0.00	30.043 
10:25	68.6	68.6	68.6	83	63.2	2	6	112	0.00	30.043 
10:30	69.3	69.3	69.3	82	63.6	2	6	90	0.00	30.038 
10:35	70.1	70.1	70.1	79	63.3	1	4	90	0.00	30.033 
10:40	70.8	70.8	70.8	77	63.2	1	5	112	0.00	30.030 
10:45	70.9	70.9	70.9	78	63.7	2	5	90	0.00	30.028 
10:50	70.4	70.4	70.4	78	63.2	2	5	112	0.00	30.029 
10:55	70.8	70.8	70.8	78	63.6	2	4	112	0.00	30.027 
11:00	71.6	71.6	71.6	74	62.9	2	5	112	0.00	30.028 
11:05	72.0	72.0	72.0	74	63.2	2	4	90	0.00	30.029 
11:10	72.0	72.0	72.0	73	62.9	2	6	90	0.00	30.028 
11:15	72.1	72.1	72.1	74	63.3	2	4	90	0.00	30.023 
11:20	72.1	72.1	72.1	73	63.0	2	4	90	0.00	30.024 
11:25	71.8	71.8	71.8	76	63.8	2	5	90	0.00	30.018 
11:30	72.0	72.0	72.0	77	64.4	1	4	90	0.00	30.016 
11:35	72.7	72.7	72.7	73	63.5	1	4	90	0.00	30.012 
11:40	73.3	73.3	73.3	71	63.3	2	5	90	0.00	30.010 
11:45	73.3	73.3	73.3	69	62.5	3	5	90	0.00	30.009 
11:50	73.2	73.2	73.2	72	63.6	2	5	68	0.00	30.008 
11:55	73.2	73.2	73.2	73	64.0	2	5	90	0.00	30.003 
12:00	73.3	73.3	73.3	69	62.5	2	7	112	0.00	30.005 
12:05	73.2	73.2	73.2	71	63.2	2	4	112	0.00	30.004 
12:10	73.3	73.3	73.3	72	63.7	2	5	68	0.00	29.999 
12:15	73.5	73.5	73.5	73	64.3	1	3	112	0.00	29.995 
12:20	73.5	73.5	73.5	70	63.1	3	7	90	0.00	29.995 
12:25	73.7	73.7	73.7	73	64.5	2	5	90	0.00	29.995 
12:30	74.2	74.2	74.2	73	65.0	1	2	90	0.00	29.995 
12:35	74.4	74.4	74.4	71	64.4	2	4	90	0.00	29.994 
12:40	74.2	74.2	74.2	69	63.4	1	4	90	0.00	29.989 
12:45	74.2	74.2	74.2	69	63.4	2	5	90	0.00	29.985 
12:50	74.2	74.2	74.2	69	63.4	1	3	112	0.00	29.982 
12:55	74.6	74.6	74.6	70	64.2	1	3	68	0.00	29.980 
13:00	75.1	75.1	77.1	65	62.5	1	4	90	0.00	29.981 
13:05	75.8	75.8	77.7	66	63.6	0	2	112	0.00	29.978 
13:10	76.3	76.3	78.2	64	63.2	1	4	112	0.00	29.980 
13:15	75.8	75.8	77.8	63	62.3	2	4	90	0.00	29.978 
13:20	75.4	75.4	77.3	66	63.2	1	4	135	0.00	29.976 
13:25	75.1	75.1	77.1	66	62.9	2	4	112	0.00	29.977 
13:30	74.6	74.6	74.6	67	62.9	1	3	68	0.00	29.977 
13:35	74.2	74.2	74.2	66	62.1	2	5	90	0.00	29.973 
13:40	74.0	74.0	74.0	69	63.2	1	3	90	0.00	29.965 
13:45	73.9	73.9	73.9	67	62.2	2	4	90	0.00	29.964 
13:50	74.0	74.0	74.0	68	62.8	1	3	90	0.00	29.963 
13:55	74.2	74.2	74.2	66	62.1	1	4	112	0.00	29.962 
14:00	74.4	74.4	74.4	68	63.1	0	2	112	0.00	29.961 
14:05	74.6	74.6	74.6	66	62.5	1	2	112	0.00	29.958 
14:10	74.9	74.9	74.9	65	62.3	0	2	112	0.00	29.955 
14:15	75.1	75.1	77.3	62	61.2	1	2	112	0.00	29.949 
14:20	75.1	75.1	77.1	65	62.5	1	4	112	0.00	29.948 
14:25	75.3	75.3	77.4	63	61.8	1	5	135	0.00	29.948 
14:30	74.9	74.9	74.9	63	61.4	1	4	112	0.00	29.942 
14:35	75.3	75.3	77.4	64	62.3	1	3	112	0.00	29.937 
14:40	75.4	75.4	77.4	64	62.4	0	1	112	0.00	29.936 
14:45	75.4	75.4	77.4	65	62.8	1	5	112	0.00	29.931 
14:50	75.3	75.3	77.2	67	63.6	1	4	90	0.00	29.930 
14:55	75.1	75.1	77.1	65	62.5	1	3	90	0.00	29.930 
15:00	74.9	74.9	74.9	65	62.3	0	2	90	0.00	29.922 
15:05	74.7	74.7	74.7	66	62.6	1	4	112	0.00	29.923 
15:10	74.4	74.4	74.4	65	61.8	2	4	90	0.00	29.919 
15:15	74.4	74.4	74.4	67	62.7	2	4	90	0.00	29.917 
15:20	74.6	74.6	74.6	69	63.7	0	2	112	0.00	29.917 
15:25	74.6	74.6	74.6	66	62.5	3	5	112	0.00	29.915 
15:30	74.4	74.4	74.4	65	61.8	2	5	90	0.00	29.915 
15:35	74.7	74.7	74.7	66	62.6	1	4	112	0.00	29.915 
15:40	74.7	74.7	74.7	66	62.6	1	3	112	0.00	29.913 
15:45	74.6	74.6	74.6	64	61.6	2	4	90	0.00	29.911 
15:50	74.6	74.6	74.6	65	62.0	1	2	90	0.00	29.911 
15:55	74.7	74.7	74.7	65	62.1	0	2	112	0.00	29.913 
16:00	74.7	74.7	74.7	63	61.2	1	3	112	0.00	29.910 
16:05	74.7	74.7	74.7	63	61.2	1	3	112	0.00	29.904 
16:10	74.6	74.6	74.6	63	61.2	2	4	112	0.00	29.899 
16:15	74.4	74.4	74.4	64	61.4	1	3	90	0.00	29.895 
16:20	74.2	74.2	74.2	64	61.2	1	4	90	0.00	29.893 
16:25	74.4	74.4	74.4	66	62.3	1	3	90	0.00	29.894 
16:30	74.6	74.6	74.6	65	62.0	0	2	90	0.00	29.896 
16:35	74.7	74.7	74.7	64	61.7	0	2	90	0.00	29.899 
16:40	74.9	74.9	74.9	64	61.9	0	2	90	0.00	29.899 
16:45	74.7	74.7	74.7	65	62.1	1	3	90	0.00	29.893 
16:50	74.7	74.7	74.7	66	62.6	1	3	158	0.00	29.892 
16:55	74.6	74.6	74.6	67	62.9	1	3	158	0.00	29.890 
17:00	74.6	74.6	74.6	67	62.9	0	3	135	0.00	29.890 
17:05	74.6	74.6	74.6	67	62.9	1	3	68	0.00	29.888 
17:10	74.4	74.4	74.4	67	62.7	1	3	68	0.00	29.886 
17:15	74.4	74.4	74.4	68	63.1	0	1	68	0.00	29.886 
17:20	74.4	74.4	74.4	69	63.5	0	1	68	0.00	29.886 
17:25	74.2	74.2	74.2	70	63.8	0	1	68	0.00	29.886 
17:30	74.2	74.2	74.2	69	63.4	0	1	68	0.00	29.887 
17:35	74.2	74.2	74.2	68	62.9	0	1	68	0.00	29.888 
17:40	74.2	74.2	74.2	68	62.9	0	2	68	0.00	29.889 
17:45	74.0	74.0	74.0	69	63.2	0	2	68	0.00	29.886 
17:50	73.9	73.9	73.9	69	63.1	0	1	68	0.00	29.886 
17:55	73.9	73.9	73.9	70	63.5	0	2	68	0.00	29.884 
18:00	73.7	73.7	73.7	72	64.1	0	2	68	0.00	29.883 
18:05	73.5	73.5	73.5	73	64.3	0	0	---	0.00	29.882 
18:10	73.3	73.3	73.3	73	64.1	0	0	---	0.00	29.884 
18:15	73.2	73.2	73.2	73	64.0	0	0	---	0.00	29.884 
18:20	73.0	73.0	73.0	73	63.8	0	0	---	0.00	29.884 
18:25	72.7	72.7	72.7	73	63.5	0	0	---	0.00	29.883 
18:30	72.5	72.5	72.5	74	63.7	0	0	---	0.00	29.881 
18:35	72.3	72.3	72.3	75	63.9	0	0	---	0.00	29.882 
18:40	72.3	72.3	72.3	75	63.9	0	0	---	0.00	29.881 
18:45	72.1	72.1	72.1	75	63.7	0	0	---	0.00	29.879 
18:50	72.0	72.0	72.0	76	64.0	0	0	---	0.00	29.881 
18:55	72.0	72.0	72.0	77	64.4	0	0	---	0.00	29.878 
19:00	71.8	71.8	71.8	77	64.2	0	0	---	0.00	29.877 
19:05	71.6	71.6	71.6	77	64.0	0	0	---	0.00	29.874 
19:10	71.5	71.5	71.5	79	64.6	0	0	---	0.00	29.870 
19:15	71.3	71.3	71.3	79	64.4	0	0	---	0.00	29.869 
19:20	70.9	70.9	70.9	81	64.8	0	0	---	0.00	29.869 
19:25	70.6	70.6	70.6	81	64.5	0	0	---	0.00	29.868 
19:30	70.3	70.3	70.3	80	63.8	0	0	---	0.00	29.867 
19:35	70.1	70.1	70.1	80	63.6	0	1	68	0.00	29.862 
19:40	69.9	69.9	69.9	81	63.8	0	1	68	0.00	29.858 
19:45	69.8	69.8	69.8	81	63.7	0	0	---	0.00	29.856 
19:50	69.6	69.6	69.6	82	63.9	0	0	---	0.00	29.856 
19:55	69.4	69.4	69.4	83	64.0	0	0	---	0.00	29.856 
20:00	69.3	69.3	69.3	83	63.9	0	0	---	0.00	29.856 
20:05	69.1	69.1	69.1	83	63.7	0	1	68	0.00	29.855 
20:10	69.1	69.1	69.1	83	63.7	0	1	68	0.00	29.845 
20:15	68.9	68.9	68.9	82	63.2	0	2	68	0.00	29.843 
20:20	68.8	68.8	68.8	81	62.7	0	1	68	0.00	29.846 
20:25	68.6	68.6	68.6	81	62.5	0	1	68	0.00	29.849 
20:30	68.6	68.6	68.6	81	62.5	0	0	---	0.00	29.846 
20:35	68.6	68.6	68.6	81	62.5	0	1	68	0.00	29.841 
20:40	68.4	68.4	68.4	81	62.3	0	1	68	0.00	29.846 
20:45	68.4	68.4	68.4	81	62.3	0	0	---	0.00	29.844 
20:50	68.4	68.4	68.4	81	62.3	0	1	68	0.00	29.846 
20:55	68.3	68.3	68.3	81	62.2	0	0	---	0.00	29.845 
21:00	68.3	68.3	68.3	81	62.2	0	0	---	0.00	29.843 
21:05	68.3	68.3	68.3	82	62.6	0	0	---	0.00	29.841 
21:10	68.1	68.1	68.1	83	62.7	0	0	---	0.00	29.843 
21:15	67.9	67.9	67.9	83	62.5	0	0	---	0.00	29.841 
21:20	67.8	67.8	67.8	83	62.4	0	0	---	0.00	29.841 
21:25	67.6	67.6	67.6	83	62.2	0	0	---	0.00	29.839 
21:30	67.6	67.6	67.6	84	62.6	0	0	---	0.00	29.836 
21:35	67.4	67.4	67.4	84	62.4	0	0	---	0.00	29.838 
21:40	67.3	67.3	67.3	84	62.3	0	0	---	0.00	29.840 
21:45	67.3	67.3	67.3	84	62.3	0	0	---	0.00	29.839 
21:50	67.1	67.1	67.1	85	62.4	0	0	---	0.00	29.834 
21:55	66.9	66.9	66.9	85	62.2	0	0	---	0.00	29.836 
22:00	66.9	66.9	66.9	85	62.2	0	0	---	0.00	29.830 
22:05	66.8	66.8	66.8	85	62.1	0	0	---	0.00	29.824 
22:10	66.8	66.8	66.8	86	62.5	0	0	---	0.00	29.822 
22:15	66.8	66.8	66.8	86	62.5	0	0	---	0.00	29.822 
22:20	66.8	66.8	66.8	87	62.8	0	0	---	0.00	29.823 
22:25	66.8	66.8	66.8	87	62.8	0	0	---	0.00	29.822 
22:30	66.8	66.8	66.8	87	62.8	0	0	---	0.00	29.824 
22:35	66.9	66.9	66.9	87	62.9	0	0	---	0.00	29.829 
22:40	67.1	67.1	67.1	87	63.1	0	0	---	0.00	29.826 
22:45	67.3	67.3	67.3	87	63.3	0	2	68	0.00	29.833 
22:50	67.6	67.6	67.6	85	62.9	1	2	0	0.00	29.826 
22:55	68.1	68.1	68.1	84	63.1	0	2	0	0.00	29.828 
23:00	68.4	68.4	68.4	84	63.4	0	1	0	0.00	29.828 
23:05	68.4	68.4	68.4	84	63.4	0	1	0	0.00	29.829 
23:10	68.4	68.4	68.4	84	63.4	0	1	0	0.00	29.823 
23:15	68.4	68.4	68.4	84	63.4	0	1	0	0.00	29.826 
23:20	68.3	68.3	68.3	85	63.6	1	2	338	0.00	29.826 
23:25	68.1	68.1	68.1	85	63.4	1	3	338	0.00	29.829 
23:30	67.8	67.8	67.8	81	61.7	1	3	315	0.00	29.827 
23:35	67.4	67.4	67.4	78	60.3	1	5	315	0.00	29.833 
23:40	66.9	66.9	66.9	78	59.8	2	6	315	0.00	29.839 
23:45	66.1	66.1	66.1	79	59.4	1	4	315	0.01	29.840 
23:50	65.5	65.5	65.5	81	59.5	1	7	292	0.00	29.846 
23:55	64.7	64.7	64.7	84	59.7	0	1	315	0.00	29.838 

CoCoRaHS
IN-AL-39
A2 Web Hosting
Creative Commons License
GoDaddy
Look for:

loaded 2017-12-10 21:28:11 • last modified 2010-11-18 10:43:29
Privacy PolicyDisclaimer
• wx.awcolley.com is powered by PmWiki v.2002016 •
• all content (unless otherwise noted) © 2017 A W Colley